createdAt,value
2023-03-05T00:00:07.939Z,100961.34
2023-03-05T00:02:59.898Z,100951.69
2023-03-05T00:05:46.714Z,100950.78
2023-03-05T00:08:33.761Z,100915.00
2023-03-05T00:11:21.492Z,100941.19
2023-03-05T00:14:08.380Z,100939.38
2023-03-05T00:16:56.610Z,100938.47
2023-03-05T00:19:43.354Z,100935.81
2023-03-05T00:22:30.152Z,100923.50
2023-03-05T00:25:17.106Z,100915.53
2023-03-05T00:28:03.898Z,100916.47
2023-03-05T00:30:51.240Z,100905.06
2023-03-05T00:33:40.658Z,100904.28
2023-03-05T00:36:28.423Z,100892.03
2023-03-05T00:39:15.418Z,100894.69
2023-03-05T00:42:04.222Z,100892.06
2023-03-05T00:44:51.249Z,100891.97
2023-03-05T00:47:38.232Z,100882.34
2023-03-05T00:50:26.757Z,100880.56
2023-03-05T00:53:14.107Z,100875.31
2023-03-05T00:56:01.251Z,100862.03
2023-03-05T00:58:47.871Z,100860.16
2023-03-05T01:01:34.362Z,100852.44
2023-03-05T01:04:22.163Z,100856.78
2023-03-05T01:07:10.405Z,100843.56
2023-03-05T01:09:57.238Z,100840.91
2023-03-05T01:12:44.028Z,100832.16
2023-03-05T01:15:31.403Z,100834.09
2023-03-05T01:18:18.671Z,100823.41
2023-03-05T01:21:06.366Z,100829.59
2023-03-05T01:23:54.827Z,100826.91
2023-03-05T01:26:41.681Z,100824.22
2023-03-05T01:29:28.411Z,100831.25
2023-03-05T01:32:15.405Z,100822.53
2023-03-05T01:35:02.973Z,100817.34
2023-03-05T01:37:49.848Z,100816.47
2023-03-05T01:40:37.952Z,100818.31
2023-03-05T01:43:28.431Z,100816.47
2023-03-05T01:46:28.676Z,100805.28
2023-03-05T01:49:20.856Z,100809.63
2023-03-05T01:52:11.821Z,100798.31
2023-03-05T01:55:01.747Z,100799.16
2023-03-05T01:57:53.621Z,100794.69
2023-03-05T02:00:45.108Z,100802.59
2023-03-05T02:03:32.861Z,100794.13
2023-03-05T02:06:19.660Z,100793.19
2023-03-05T02:09:06.712Z,100795.03
2023-03-05T02:11:53.603Z,100787.09
2023-03-05T02:14:46.291Z,100780.19
2023-03-05T02:17:33.085Z,100777.50
2023-03-05T02:20:22.086Z,100792.50
2023-03-05T02:23:10.129Z,100789.00
2023-03-05T02:25:57.518Z,100782.84
2023-03-05T02:28:47.969Z,100782.94
2023-03-05T02:31:34.658Z,100776.84
2023-03-05T02:34:21.426Z,100786.50
2023-03-05T02:37:10.718Z,100783.88
2023-03-05T02:39:59.865Z,100786.50
2023-03-05T02:42:47.157Z,100773.34
2023-03-05T02:45:34.814Z,100769.88
2023-03-05T02:48:21.475Z,100767.25
2023-03-05T02:51:09.297Z,100770.78
2023-03-05T02:53:55.851Z,100763.84
2023-03-05T02:56:47.482Z,100764.78
2023-03-05T02:59:34.130Z,100763.78
2023-03-05T03:02:20.938Z,100764.72
2023-03-05T03:05:08.858Z,100761.09
2023-03-05T03:07:55.630Z,100757.75
2023-03-05T03:10:42.463Z,100751.63
2023-03-05T03:13:30.516Z,100750.78
2023-03-05T03:16:17.969Z,100751.66
2023-03-05T03:19:04.407Z,100737.53
2023-03-05T03:21:51.326Z,100737.78
2023-03-05T03:24:39.301Z,100731.63
2023-03-05T03:27:25.974Z,100734.25
2023-03-05T03:30:15.300Z,100722.84
2023-03-05T03:33:01.980Z,100729.03
2023-03-05T03:35:48.699Z,100731.59
2023-03-05T03:38:35.424Z,100730.69
2023-03-05T03:41:22.279Z,100729.03
2023-03-05T03:44:10.764Z,100724.66
2023-03-05T03:46:58.504Z,100665.44
2023-03-05T03:49:45.295Z,100715.94
2023-03-05T03:52:32.151Z,100709.72
2023-03-05T03:55:18.876Z,100712.38
2023-03-05T03:58:05.628Z,100702.88
2023-03-05T04:00:52.470Z,100705.38
2023-03-05T04:03:40.473Z,100701.13
2023-03-05T04:06:27.119Z,100689.69
2023-03-05T04:09:13.944Z,100696.53
2023-03-05T04:12:00.674Z,100695.00
2023-03-05T04:14:47.872Z,100682.63
2023-03-05T04:17:34.444Z,100690.53
2023-03-05T04:20:22.600Z,100683.72
2023-03-05T04:23:08.982Z,100683.59
2023-03-05T04:25:55.961Z,100684.41
2023-03-05T04:28:42.660Z,100677.44
2023-03-05T04:31:29.493Z,100672.22
2023-03-05T04:34:16.081Z,100674.81
2023-03-05T04:37:04.436Z,100671.38
2023-03-05T04:39:51.556Z,100671.34
2023-03-05T04:42:38.472Z,100660.88
2023-03-05T04:45:25.094Z,100654.78
2023-03-05T04:48:12.856Z,100653.09
2023-03-05T04:50:59.547Z,100658.28
2023-03-05T04:53:47.758Z,100663.41
2023-03-05T04:56:36.390Z,100652.00
2023-03-05T04:59:23.016Z,100646.00
2023-03-05T05:02:09.871Z,100648.75
2023-03-05T05:04:56.871Z,100641.72
2023-03-05T05:07:43.524Z,100644.25
2023-03-05T05:10:31.709Z,100649.53
2023-03-05T05:13:19.876Z,100638.19
2023-03-05T05:16:08.586Z,100645.22
2023-03-05T05:18:55.266Z,100648.59
2023-03-05T05:21:42.580Z,100649.53
2023-03-05T05:24:29.933Z,100640.72
2023-03-05T05:27:20.441Z,100634.63
2023-03-05T05:30:08.381Z,100641.69
2023-03-05T05:32:54.918Z,100644.28
2023-03-05T05:35:41.740Z,100645.16
2023-03-05T05:38:28.386Z,100643.44
2023-03-05T05:41:18.626Z,100640.00
2023-03-05T05:44:06.669Z,100646.09
2023-03-05T05:46:53.230Z,100640.81
2023-03-05T05:49:39.927Z,100647.75
2023-03-05T05:52:26.739Z,100640.84
2023-03-05T05:55:14.200Z,100654.84
2023-03-05T05:58:00.523Z,100641.59
2023-03-05T06:00:48.658Z,100644.31
2023-03-05T06:03:35.448Z,100643.41
2023-03-05T06:06:24.417Z,100647.75
2023-03-05T06:09:10.874Z,100645.16
2023-03-05T06:11:57.661Z,100645.97
2023-03-05T06:14:44.386Z,100646.97
2023-03-05T06:17:32.545Z,100651.28
2023-03-05T06:20:19.571Z,100649.53
2023-03-05T06:23:06.324Z,100650.44
2023-03-05T06:25:53.792Z,100645.94
2023-03-05T06:28:40.324Z,100652.09
2023-03-05T06:31:29.575Z,100653.00
2023-03-05T06:34:17.521Z,100646.06
2023-03-05T06:37:04.367Z,100649.59
2023-03-05T06:39:51.147Z,100650.41
2023-03-05T06:42:37.979Z,100651.34
2023-03-05T06:45:24.771Z,100645.19
2023-03-05T06:48:11.777Z,100649.53
2023-03-05T06:50:59.798Z,100646.03
2023-03-05T06:53:49.369Z,100640.81
2023-03-05T06:56:38.152Z,100633.81
2023-03-05T06:59:25.161Z,100638.25
2023-03-05T07:02:13.730Z,100632.97
2023-03-05T07:05:00.316Z,100638.94
2023-03-05T07:07:48.398Z,100644.16
2023-03-05T07:10:39.138Z,100635.50
2023-03-05T07:13:25.690Z,100642.50
2023-03-05T07:16:16.420Z,100641.56
2023-03-05T07:19:05.702Z,100647.69
2023-03-05T07:21:52.604Z,100643.31
2023-03-05T07:24:40.812Z,100652.78
2023-03-05T07:27:27.567Z,100650.09
2023-03-05T07:30:15.140Z,100655.28
2023-03-05T07:33:02.192Z,100660.38
2023-03-05T07:35:49.055Z,100658.69
2023-03-05T07:38:35.994Z,100659.47
2023-03-05T07:41:24.488Z,100663.03
2023-03-05T07:44:11.346Z,100667.34
2023-03-05T07:46:58.090Z,100622.25
2023-03-05T07:49:44.776Z,100657.03
2023-03-05T07:52:31.648Z,100653.31
2023-03-05T07:55:18.602Z,100653.38
2023-03-05T07:58:06.597Z,100662.84
2023-03-05T08:00:53.370Z,100652.41
2023-03-05T08:03:40.568Z,100656.00
2023-03-05T08:06:27.401Z,100658.59
2023-03-05T08:09:14.392Z,100661.13
2023-03-05T08:12:01.151Z,100662.63
2023-03-05T08:14:49.285Z,100648.53
2023-03-05T08:17:36.112Z,100666.91
2023-03-05T08:20:23.221Z,100655.75
2023-03-05T08:23:09.753Z,100657.53
2023-03-05T08:25:57.249Z,100658.31
2023-03-05T08:28:43.749Z,100650.50
2023-03-05T08:31:32.132Z,100655.88
2023-03-05T08:34:18.876Z,100645.97
2023-03-05T08:37:06.249Z,100644.25
2023-03-05T08:39:52.985Z,100635.31
2023-03-05T08:42:39.765Z,100639.56
2023-03-05T08:45:27.647Z,100652.03
2023-03-05T08:48:15.804Z,100634.31
2023-03-05T08:51:06.780Z,100627.81
2023-03-05T08:53:53.703Z,100632.13
2023-03-05T08:56:40.591Z,100619.31
2023-03-05T08:59:27.028Z,100630.81
2023-03-05T09:02:14.427Z,100633.59
2023-03-05T09:05:02.673Z,100626.69
2023-03-05T09:07:49.286Z,100623.25
2023-03-05T09:10:36.083Z,100630.19
2023-03-05T09:13:23.193Z,100624.06
2023-03-05T09:16:13.255Z,100623.91
2023-03-05T09:19:00.231Z,100617.66
2023-03-05T09:21:48.471Z,100620.16
2023-03-05T09:24:35.178Z,100621.00
2023-03-05T09:27:22.205Z,100613.19
2023-03-05T09:30:10.052Z,100614.16
2023-03-05T09:32:56.878Z,100618.38
2023-03-05T09:35:43.696Z,100613.13
2023-03-05T09:38:32.071Z,100612.41
2023-03-05T09:41:27.819Z,100613.38
2023-03-05T09:44:24.538Z,100609.66
2023-03-05T09:47:28.323Z,100604.13
2023-03-05T09:50:32.990Z,100610.50
2023-03-05T09:53:27.257Z,100622.81
2023-03-05T09:56:18.032Z,100614.00
2023-03-05T09:59:16.380Z,100607.72
2023-03-05T10:02:13.685Z,100554.53
2023-03-05T10:05:05.481Z,100598.00
2023-03-05T10:07:56.428Z,100599.97
2023-03-05T10:10:49.883Z,100599.84
2023-03-05T10:13:42.279Z,100592.69
2023-03-05T10:17:01.095Z,100588.28
2023-03-05T10:20:04.532Z,100582.94
2023-03-05T10:23:11.346Z,100587.91
2023-03-05T10:26:08.133Z,100577.28
2023-03-05T10:29:12.897Z,100585.59
2023-03-05T10:32:13.082Z,100571.47
2023-03-05T10:35:29.652Z,100566.63
2023-03-05T10:38:27.704Z,100560.72
2023-03-05T10:41:21.114Z,100559.72
2023-03-05T10:44:15.324Z,100556.34
2023-03-05T10:47:03.045Z,100550.72
2023-03-05T10:49:53.265Z,100554.84
2023-03-05T10:52:46.721Z,100531.56
2023-03-05T10:55:33.526Z,100537.69
2023-03-05T10:58:20.219Z,100542.09
2023-03-05T11:01:22.784Z,100529.91
2023-03-05T11:04:26.984Z,100515.44
2023-03-05T11:07:38.513Z,100536.03
2023-03-05T11:10:26.264Z,100537.06
2023-03-05T11:13:26.439Z,100540.53
2023-03-05T11:16:21.088Z,100534.44
2023-03-05T11:19:20.143Z,100495.81
2023-03-05T11:22:16.619Z,100536.06
2023-03-05T11:25:14.238Z,100542.13
2023-03-05T11:28:03.255Z,100533.78
2023-03-05T11:30:58.212Z,100512.47
2023-03-05T11:33:57.966Z,100566.22
2023-03-05T11:37:03.641Z,100542.78
2023-03-05T11:39:50.570Z,100532.34
2023-03-05T11:42:41.399Z,100538.91
2023-03-05T11:45:29.695Z,100548.66
2023-03-05T11:48:21.002Z,100541.09
2023-03-05T11:51:16.897Z,100522.94
2023-03-05T11:54:13.193Z,100540.94
2023-03-05T11:57:02.594Z,100527.91
2023-03-05T11:59:51.375Z,100536.38
2023-03-05T12:02:39.174Z,100524.38
2023-03-05T12:05:34.721Z,100520.16
2023-03-05T12:08:28.599Z,100518.88
2023-03-05T12:11:22.153Z,100517.03
2023-03-05T12:14:20.255Z,100503.31
2023-03-05T12:17:11.530Z,100508.13
2023-03-05T12:20:06.493Z,100503.03
2023-03-05T12:22:53.832Z,100491.06
2023-03-05T12:25:49.256Z,100491.56
2023-03-05T12:28:59.435Z,100495.66
2023-03-05T12:31:46.393Z,100498.78
2023-03-05T12:34:48.434Z,100499.69
2023-03-05T12:38:06.179Z,100493.72
2023-03-05T12:41:35.806Z,100493.16
2023-03-05T12:44:23.793Z,100491.28
2023-03-05T12:47:23.701Z,100499.50
2023-03-05T12:50:52.898Z,100499.78
2023-03-05T12:53:39.744Z,100501.03
2023-03-05T12:56:31.093Z,100471.28
2023-03-05T12:59:23.019Z,100489.47
2023-03-05T13:02:23.009Z,100489.19
2023-03-05T13:05:21.862Z,100496.09
2023-03-05T13:08:22.077Z,100487.59
2023-03-05T13:11:18.056Z,100487.69
2023-03-05T13:14:05.107Z,100473.47
2023-03-05T13:16:53.237Z,100483.88
2023-03-05T13:19:42.970Z,100481.19
2023-03-05T13:22:29.974Z,100474.03
2023-03-05T13:25:20.646Z,100478.38
2023-03-05T13:28:12.958Z,100474.63
2023-03-05T13:31:02.364Z,100466.41
2023-03-05T13:33:56.918Z,100468.88
2023-03-05T13:36:48.464Z,100469.47
2023-03-05T13:39:38.423Z,100472.19
2023-03-05T13:42:28.494Z,100475.72
2023-03-05T13:45:24.687Z,100482.63
2023-03-05T13:48:20.388Z,100473.13
2023-03-05T13:51:09.709Z,100467.16
2023-03-05T13:53:56.381Z,100470.66
2023-03-05T13:56:51.230Z,100466.22
2023-03-05T13:59:40.071Z,100459.06
2023-03-05T14:02:28.991Z,100455.78
2023-03-05T14:05:16.562Z,100448.56
2023-03-05T14:08:05.191Z,100447.50
2023-03-05T14:10:52.522Z,100437.06
2023-03-05T14:13:39.592Z,100434.44
2023-03-05T14:16:28.147Z,100442.09
2023-03-05T14:19:34.850Z,100430.09
2023-03-05T14:22:33.199Z,100430.91
2023-03-05T14:25:36.617Z,100437.25
2023-03-05T14:28:28.320Z,100443.97
2023-03-05T14:31:18.377Z,100431.97
2023-03-05T14:34:07.352Z,100430.75
2023-03-05T14:36:57.387Z,100415.56
2023-03-05T14:39:50.802Z,100433.09
2023-03-05T14:42:51.469Z,100432.59
2023-03-05T14:45:39.814Z,100431.13
2023-03-05T14:48:26.561Z,100423.72
2023-03-05T14:51:13.570Z,100422.78
2023-03-05T14:54:00.214Z,100425.53
2023-03-05T14:56:48.031Z,100423.66
2023-03-05T14:59:36.176Z,100414.50
2023-03-05T15:02:24.811Z,100416.59
2023-03-05T15:05:11.388Z,100415.59
2023-03-05T15:07:58.361Z,100410.13
2023-03-05T15:10:45.449Z,100410.22
2023-03-05T15:13:32.384Z,100404.19
2023-03-05T15:16:21.053Z,100412.16
2023-03-05T15:19:07.526Z,100397.19
2023-03-05T15:21:54.176Z,100403.22
2023-03-05T15:24:40.990Z,100399.91
2023-03-05T15:27:27.910Z,100395.59
2023-03-05T15:30:22.540Z,100404.53
2023-03-05T15:33:12.667Z,100399.91
2023-03-05T15:35:59.598Z,100397.19
2023-03-05T15:38:48.124Z,100392.16
2023-03-05T15:41:34.861Z,100378.97
2023-03-05T15:44:22.226Z,100394.44
2023-03-05T15:47:09.125Z,100385.25
2023-03-05T15:49:57.179Z,100377.16
2023-03-05T15:52:43.858Z,100383.28
2023-03-05T15:55:30.654Z,100381.78
2023-03-05T15:58:18.317Z,100378.28
2023-03-05T16:01:04.810Z,100372.88
2023-03-05T16:03:51.970Z,100370.22
2023-03-05T16:06:40.194Z,100365.81
2023-03-05T16:09:30.900Z,100371.13
2023-03-05T16:12:23.461Z,100364.88
2023-03-05T16:15:12.234Z,100344.19
2023-03-05T16:18:01.757Z,100355.47
2023-03-05T16:20:48.753Z,100354.75
2023-03-05T16:23:36.859Z,100349.50
2023-03-05T16:26:23.768Z,100359.47
2023-03-05T16:29:10.965Z,100351.88
2023-03-05T16:32:03.749Z,100355.69
2023-03-05T16:34:51.001Z,100344.19
2023-03-05T16:37:41.161Z,100350.38
2023-03-05T16:40:56.657Z,100312.25
2023-03-05T16:43:51.533Z,100350.38
2023-03-05T16:46:41.641Z,100345.16
2023-03-05T16:49:28.811Z,100347.66
2023-03-05T16:52:18.977Z,100353.97
2023-03-05T16:55:07.718Z,100360.16
2023-03-05T16:57:57.719Z,100358.59
2023-03-05T17:00:46.300Z,100363.81
2023-03-05T17:03:33.671Z,100364.69
2023-03-05T17:06:22.652Z,100359.47
2023-03-05T17:09:09.345Z,100367.44
2023-03-05T17:11:56.299Z,100363.09
2023-03-05T17:14:44.456Z,100360.41
2023-03-05T17:17:31.923Z,100367.50
2023-03-05T17:20:20.176Z,100369.22
2023-03-05T17:23:06.753Z,100365.44
2023-03-05T17:25:53.684Z,100357.69
2023-03-05T17:28:41.110Z,100358.53
2023-03-05T17:31:32.587Z,100359.44
2023-03-05T17:34:33.308Z,100365.59
2023-03-05T17:37:21.111Z,100363.06
2023-03-05T17:40:09.494Z,100357.00
2023-03-05T17:42:58.470Z,100358.75
2023-03-05T17:45:48.928Z,100354.38
2023-03-05T17:48:39.410Z,100351.69
2023-03-05T17:51:26.903Z,100357.88
2023-03-05T17:54:13.876Z,100364.94
2023-03-05T17:57:01.178Z,100357.06
2023-03-05T17:59:48.637Z,100359.75
2023-03-05T18:02:43.576Z,100360.75
2023-03-05T18:05:36.783Z,100354.72
2023-03-05T18:08:25.558Z,100354.75
2023-03-05T18:11:15.995Z,100354.88
2023-03-05T18:14:05.757Z,100346.16
2023-03-05T18:16:55.404Z,100352.22
2023-03-05T18:19:42.298Z,100348.88
2023-03-05T18:22:30.268Z,100350.63
2023-03-05T18:25:17.087Z,100344.50
2023-03-05T18:28:05.887Z,100352.41
2023-03-05T18:30:53.075Z,100350.78
2023-03-05T18:33:39.836Z,100356.03
2023-03-05T18:36:26.466Z,100343.91
2023-03-05T18:39:16.355Z,100350.88
2023-03-05T18:42:03.264Z,100347.41
2023-03-05T18:44:49.980Z,100346.50
2023-03-05T18:47:39.108Z,100350.16
2023-03-05T18:50:28.777Z,100336.09
2023-03-05T18:53:15.848Z,100344.81
2023-03-05T18:56:03.870Z,100343.22
2023-03-05T18:58:51.068Z,100347.50
2023-03-05T19:01:39.187Z,100297.03
2023-03-05T19:04:25.734Z,100336.97
2023-03-05T19:07:12.539Z,100342.09
2023-03-05T19:10:03.829Z,100305.59
2023-03-05T19:12:57.729Z,100335.03
2023-03-05T19:15:44.465Z,100338.66
2023-03-05T19:18:33.946Z,100331.75
2023-03-05T19:21:20.502Z,100323.91
2023-03-05T19:24:08.060Z,100313.44
2023-03-05T19:26:56.118Z,100312.59
2023-03-05T19:29:45.066Z,100316.13
2023-03-05T19:32:31.655Z,100317.97
2023-03-05T19:35:19.254Z,100322.31
2023-03-05T19:38:06.183Z,100318.91
2023-03-05T19:40:53.287Z,100313.81
2023-03-05T19:43:40.611Z,100313.03
2023-03-05T19:46:29.182Z,100308.66
2023-03-05T19:49:17.571Z,100308.59
2023-03-05T19:52:06.412Z,100305.94
2023-03-05T19:54:53.529Z,100295.44
2023-03-05T19:57:40.844Z,100302.41
2023-03-05T20:00:29.584Z,100298.06
2023-03-05T20:03:18.323Z,100293.00
2023-03-05T20:06:06.301Z,100297.34
2023-03-05T20:08:54.336Z,100296.50
2023-03-05T20:11:41.620Z,100298.22
2023-03-05T20:14:28.826Z,100293.00
2023-03-05T20:17:16.426Z,100292.09
2023-03-05T20:20:05.131Z,100291.16
2023-03-05T20:22:52.323Z,100288.63
2023-03-05T20:25:40.022Z,100291.97
2023-03-05T20:28:27.069Z,100285.09
2023-03-05T20:31:14.379Z,100288.50
2023-03-05T20:34:01.767Z,100265.13
2023-03-05T20:36:50.270Z,100285.88
2023-03-05T20:39:37.012Z,100283.28
2023-03-05T20:42:23.969Z,100280.69
2023-03-05T20:45:14.339Z,100280.59
2023-03-05T20:48:04.818Z,100272.78
2023-03-05T20:50:53.259Z,100258.09
2023-03-05T20:53:45.565Z,100274.41
2023-03-05T20:56:39.649Z,100265.66
2023-03-05T20:59:29.626Z,100272.56
2023-03-05T21:02:19.668Z,100262.91
2023-03-05T21:05:10.657Z,100261.97
2023-03-05T21:08:05.615Z,100257.75
2023-03-05T21:10:53.585Z,100250.88
2023-03-05T21:13:40.418Z,100254.31
2023-03-05T21:16:28.427Z,100251.69
2023-03-05T21:19:14.804Z,100246.19
2023-03-05T21:22:01.695Z,100243.56
2023-03-05T21:25:00.939Z,100237.63
2023-03-05T21:27:49.821Z,100245.53
2023-03-05T21:30:38.795Z,100238.63
2023-03-05T21:33:30.272Z,100234.28
2023-03-05T21:36:20.343Z,100225.53
2023-03-05T21:39:07.047Z,100227.31
2023-03-05T21:41:53.759Z,100223.81
2023-03-05T21:44:42.007Z,100220.19
2023-03-05T21:47:28.634Z,100213.25
2023-03-05T21:50:16.964Z,100221.88
2023-03-05T21:53:03.938Z,100214.06
2023-03-05T21:56:04.190Z,100203.69
2023-03-05T21:58:51.202Z,100201.91
2023-03-05T22:01:39.368Z,100208.06
2023-03-05T22:04:29.813Z,100202.81
2023-03-05T22:07:21.985Z,100189.63
2023-03-05T22:10:11.807Z,100188.03
2023-03-05T22:13:07.006Z,100189.78
2023-03-05T22:15:55.534Z,100179.34
2023-03-05T22:18:43.498Z,100180.28
2023-03-05T22:21:30.900Z,100171.56
2023-03-05T22:24:17.416Z,100173.31
2023-03-05T22:27:04.574Z,100166.22
2023-03-05T22:29:51.385Z,100152.25
2023-03-05T22:32:38.620Z,100152.28
2023-03-05T22:35:27.153Z,100146.94
2023-03-05T22:38:14.016Z,100140.84
2023-03-05T22:41:00.644Z,100133.00
2023-03-05T22:43:48.268Z,100134.63
2023-03-05T22:46:34.755Z,100141.69
2023-03-05T22:49:21.436Z,100133.00
2023-03-05T22:52:09.685Z,100128.78
2023-03-05T22:54:56.396Z,100121.94
2023-03-05T22:57:43.648Z,100125.31
2023-03-05T23:00:32.035Z,100114.94
2023-03-05T23:03:18.801Z,100112.25
2023-03-05T23:06:07.232Z,100115.84
2023-03-05T23:08:55.163Z,100118.44
2023-03-05T23:11:41.908Z,100113.25
2023-03-05T23:14:29.126Z,100100.03
2023-03-05T23:17:16.146Z,100112.47
2023-03-05T23:20:05.128Z,100097.63
2023-03-05T23:22:53.722Z,100097.59
2023-03-05T23:25:41.892Z,100103.59
2023-03-05T23:28:28.589Z,100091.63
2023-03-05T23:31:18.753Z,100088.16
2023-03-05T23:34:05.225Z,100099.38
2023-03-05T23:36:51.961Z,100088.88
2023-03-05T23:39:38.654Z,100083.66
2023-03-05T23:42:29.590Z,100083.75
2023-03-05T23:45:18.085Z,100081.00
2023-03-05T23:48:05.395Z,100076.59
2023-03-05T23:50:52.706Z,100057.72
2023-03-05T23:53:39.271Z,100074.28
2023-03-05T23:56:26.181Z,100056.94
2023-03-05T23:59:14.293Z,100063.81
